Time;durP1;ratioP1;P1;durP2;ratioP2;P2;SDS_P1;SDS_P2;PMS_P1;PMS_P2;Temp;Humidity;BMP_temperature;BMP_pressure;BME280_temperature;BME280_humidity;BME280_pressure;Samples;Min_cycle;Max_cycle;Signal;HPM_P1;HPM_P2
2023/07/26 00:00:06;;;;;;;2.97;1.60;;;17.50;1.00;;;;;;5034079;28;20489;-77
2023/07/26 00:02:33;;;;;;;4.53;1.70;;;17.40;1.00;;;;;;5032997;28;20470;-74
2023/07/26 00:05:00;;;;;;;3.50;1.73;;;17.30;1.00;;;;;;5034402;28;20453;-77
2023/07/26 00:07:28;;;;;;;2.47;2.03;;;17.30;1.00;;;;;;5034438;28;20553;-77
2023/07/26 00:09:56;;;;;;;5.27;2.30;;;17.30;1.00;;;;;;5031726;28;20457;-78
2023/07/26 00:12:25;;;;;;;3.10;1.80;;;17.20;1.00;;;;;;5034660;28;21052;-78
2023/07/26 00:14:53;;;;;;;3.27;1.77;;;17.30;1.00;;;;;;5032978;28;20466;-78
2023/07/26 00:17:20;;;;;;;3.40;1.70;;;17.20;1.00;;;;;;5033083;28;20500;-77
2023/07/26 00:19:47;;;;;;;4.37;2.03;;;17.20;1.00;;;;;;5035206;28;20524;-77
2023/07/26 00:22:14;;;;;;;3.87;1.97;;;17.20;1.00;;;;;;5035531;28;20560;-77
2023/07/26 00:24:41;;;;;;;2.93;1.70;;;17.20;1.00;;;;;;5034574;28;20943;-78
2023/07/26 00:27:10;;;;;;;6.80;2.47;;;17.20;1.00;;;;;;5033920;28;20848;-77
2023/07/26 00:29:37;;;;;;;3.63;1.40;;;17.10;1.00;;;;;;5033673;28;20483;-77
2023/07/26 00:32:04;;;;;;;3.73;1.83;;;16.90;1.00;;;;;;5034818;28;20473;-77
2023/07/26 00:34:31;;;;;;;3.63;1.90;;;16.80;1.00;;;;;;5034616;28;20511;-77
2023/07/26 00:37:03;;;;;;;2.60;1.73;;;16.80;1.00;;;;;;5034852;28;20453;-78
2023/07/26 00:39:31;;;;;;;2.70;1.57;;;16.70;1.00;;;;;;5034433;28;21044;-78
2023/07/26 00:41:58;;;;;;;2.50;1.40;;;16.70;1.00;;;;;;5035411;28;20461;-78
2023/07/26 00:44:26;;;;;;;2.40;2.07;;;16.70;1.00;;;;;;5029538;28;20472;-78
2023/07/26 00:46:53;;;;;;;6.43;2.20;;;16.60;1.00;;;;;;5032632;28;20488;-78
2023/07/26 00:49:20;;;;;;;2.53;1.70;;;16.50;1.00;;;;;;5035533;28;20461;-78
2023/07/26 00:51:47;;;;;;;5.97;2.03;;;16.40;1.00;;;;;;5027800;28;20474;-79
2023/07/26 00:54:15;;;;;;;3.60;2.03;;;16.40;1.00;;;;;;5036167;28;20841;-79
2023/07/26 00:56:42;;;;;;;3.57;1.80;;;16.30;1.00;;;;;;5031818;28;20861;-77
2023/07/26 00:59:10;;;;;;;5.73;1.80;;;16.20;1.00;;;;;;5034627;28;20460;-77
2023/07/26 01:01:39;;;;;;;4.63;2.03;;;16.10;1.00;;;;;;5030325;28;20823;-78
2023/07/26 01:04:07;;;;;;;1.67;1.40;;;16.10;1.00;;;;;;5033842;28;20493;-78
2023/07/26 01:06:42;;;;;;;3.50;2.00;;;16.10;1.00;;;;;;5016089;28;20518;-77
2023/07/26 01:09:14;;;;;;;4.63;2.10;;;16.00;1.00;;;;;;5034151;28;20475;-78
2023/07/26 01:11:48;;;;;;;2.53;1.57;;;16.00;1.00;;;;;;5034001;28;20567;-78
2023/07/26 01:14:22;;;;;;;2.30;2.10;;;16.00;1.00;;;;;;5033118;28;20466;-78
2023/07/26 01:16:50;;;;;;;4.13;2.13;;;16.00;1.00;;;;;;5033424;28;20468;-78
2023/07/26 01:19:17;;;;;;;5.10;2.07;;;16.00;1.00;;;;;;5032781;28;20493;-78
2023/07/26 01:21:46;;;;;;;3.30;2.20;;;16.00;1.00;;;;;;5034522;28;20465;-78
2023/07/26 01:24:13;;;;;;;5.00;2.23;;;15.90;1.00;;;;;;5030471;28;20461;-77
2023/07/26 01:26:40;;;;;;;2.97;1.63;;;15.90;1.00;;;;;;5033366;28;21284;-78
2023/07/26 01:29:07;;;;;;;3.23;1.90;;;15.90;1.00;;;;;;5033734;28;21042;-77
2023/07/26 01:31:35;;;;;;;3.63;1.70;;;15.80;1.00;;;;;;5033142;28;20910;-77
2023/07/26 01:34:02;;;;;;;3.57;1.87;;;15.70;1.00;;;;;;5035078;28;20548;-77
2023/07/26 01:36:30;;;;;;;7.60;2.50;;;15.70;1.00;;;;;;5033346;28;20530;-77
2023/07/26 01:38:59;;;;;;;3.90;1.70;;;15.70;1.00;;;;;;5032125;28;20481;-79
2023/07/26 01:41:27;;;;;;;6.00;2.37;;;15.60;1.00;;;;;;5034842;28;20893;-77
2023/07/26 01:43:54;;;;;;;2.33;1.70;;;15.50;1.00;;;;;;5032606;28;20926;-76
2023/07/26 01:46:21;;;;;;;2.77;1.83;;;15.50;1.00;;;;;;5032947;28;20462;-77
2023/07/26 01:48:48;;;;;;;6.93;2.53;;;15.50;1.00;;;;;;5031919;28;21119;-78
2023/07/26 01:51:16;;;;;;;2.07;1.80;;;15.50;1.00;;;;;;5034497;28;20441;-78
2023/07/26 01:53:43;;;;;;;3.57;2.20;;;15.40;1.00;;;;;;5030975;28;20457;-77
2023/07/26 01:56:11;;;;;;;2.57;1.60;;;15.40;1.00;;;;;;5033817;28;20460;-78
2023/07/26 01:58:41;;;;;;;4.70;2.20;;;15.30;1.00;;;;;;5021487;28;20469;-78
2023/07/26 02:01:08;;;;;;;2.97;2.27;;;15.30;1.00;;;;;;5033344;28;20480;-78
2023/07/26 02:03:35;;;;;;;3.43;1.77;;;15.30;1.00;;;;;;5031706;28;20512;-77
2023/07/26 02:06:02;;;;;;;4.07;1.87;;;15.20;1.00;;;;;;5032640;28;20433;-78
2023/07/26 02:08:29;;;;;;;1.77;1.63;;;15.20;1.00;;;;;;5032490;28;20467;-77
2023/07/26 02:10:56;;;;;;;6.73;2.47;;;15.20;1.00;;;;;;5033570;28;20471;-78
2023/07/26 02:13:25;;;;;;;3.13;1.90;;;15.10;1.00;;;;;;5033713;28;20558;-79
2023/07/26 02:15:52;;;;;;;6.23;2.73;;;15.10;1.00;;;;;;5031642;28;20476;-78
2023/07/26 02:18:19;;;;;;;6.17;2.40;;;15.00;1.00;;;;;;5034067;28;20494;-78
2023/07/26 02:20:46;;;;;;;6.60;2.30;;;15.00;1.00;;;;;;5035200;28;20485;-78
2023/07/26 02:23:13;;;;;;;3.17;2.10;;;15.00;1.00;;;;;;5034223;28;20465;-78
2023/07/26 02:25:40;;;;;;;3.10;2.03;;;15.00;1.00;;;;;;5031679;28;20879;-79
2023/07/26 02:28:07;;;;;;;2.80;1.90;;;15.00;1.00;;;;;;5032052;28;21058;-78
2023/07/26 02:30:35;;;;;;;3.93;2.70;;;14.90;1.00;;;;;;5032561;28;20506;-76
2023/07/26 02:33:02;;;;;;;2.60;2.10;;;14.90;1.00;;;;;;5034615;28;20984;-78
2023/07/26 02:35:30;;;;;;;3.30;1.70;;;14.80;1.00;;;;;;5031308;28;20464;-78
2023/07/26 02:37:57;;;;;;;2.57;2.10;;;14.80;1.00;;;;;;5031741;28;20460;-79
2023/07/26 02:40:24;;;;;;;6.07;4.07;;;14.80;1.00;;;;;;5034434;28;20484;-78
2023/07/26 02:42:51;;;;;;;3.03;2.10;;;14.80;1.00;;;;;;5032330;28;20522;-78
2023/07/26 02:45:18;;;;;;;4.20;2.03;;;14.80;1.00;;;;;;5029614;28;20489;-78
2023/07/26 02:47:46;;;;;;;3.30;2.13;;;14.80;1.00;;;;;;5031638;28;20556;-78
2023/07/26 02:50:13;;;;;;;4.87;2.70;;;14.70;1.00;;;;;;5034167;28;20506;-79
2023/07/26 02:52:40;;;;;;;3.80;2.00;;;14.70;1.00;;;;;;5032848;28;20472;-80
2023/07/26 02:55:08;;;;;;;4.50;2.57;;;14.70;1.00;;;;;;5032810;28;20467;-78
2023/07/26 02:57:35;;;;;;;3.60;2.43;;;14.70;1.00;;;;;;5031913;28;20555;-76
2023/07/26 03:00:02;;;;;;;3.13;2.37;;;14.70;1.00;;;;;;5033490;28;20471;-78
2023/07/26 03:02:33;;;;;;;3.03;2.10;;;14.70;1.00;;;;;;5033036;28;20525;-78
2023/07/26 03:05:02;;;;;;;4.60;2.50;;;14.70;1.00;;;;;;5032190;28;20962;-77
2023/07/26 03:07:29;;;;;;;6.80;2.67;;;14.70;1.00;;;;;;5034379;28;20457;-79
2023/07/26 03:09:56;;;;;;;8.80;2.70;;;14.70;1.00;;;;;;5031620;28;20468;-78
2023/07/26 03:12:24;;;;;;;3.87;2.20;;;14.70;1.00;;;;;;5031834;28;20518;-78
2023/07/26 03:14:52;;;;;;;6.63;2.97;;;14.70;1.00;;;;;;5032674;28;20460;-77
2023/07/26 03:17:19;;;;;;;6.73;2.97;;;14.70;1.00;;;;;;5033968;28;20422;-78
2023/07/26 03:19:47;;;;;;;4.40;2.53;;;14.70;1.00;;;;;;5032883;28;20480;-78
2023/07/26 03:22:17;;;;;;;3.60;2.20;;;14.70;1.00;;;;;;5033393;28;20457;-78
2023/07/26 03:24:45;;;;;;;3.63;2.53;;;14.70;1.00;;;;;;5034474;28;20464;-78
2023/07/26 03:27:12;;;;;;;3.03;2.73;;;14.70;1.00;;;;;;5030762;28;20468;-78
2023/07/26 03:29:39;;;;;;;5.43;2.70;;;14.70;1.00;;;;;;5031884;28;20957;-78
2023/07/26 03:32:07;;;;;;;5.37;3.40;;;14.70;1.00;;;;;;5033111;28;20863;-79
2023/07/26 03:34:35;;;;;;;4.73;2.30;;;14.70;1.00;;;;;;5032954;28;20898;-78
2023/07/26 03:37:02;;;;;;;4.40;2.23;;;14.60;1.00;;;;;;5031997;28;20510;-78
2023/07/26 03:39:32;;;;;;;10.43;3.00;;;14.60;1.00;;;;;;5034569;28;20467;-78
2023/07/26 03:41:59;;;;;;;7.33;5.30;;;14.50;1.00;;;;;;5030124;28;20631;-77
2023/07/26 03:44:27;;;;;;;2.50;2.30;;;14.50;1.00;;;;;;5035176;28;21302;-79
2023/07/26 03:46:54;;;;;;;3.67;2.70;;;14.50;1.00;;;;;;5033490;28;20464;-78
2023/07/26 03:49:21;;;;;;;6.07;2.97;;;14.50;1.00;;;;;;5033316;28;20515;-78
2023/07/26 03:51:48;;;;;;;5.43;2.93;;;14.50;1.00;;;;;;5030066;28;20571;-78
2023/07/26 03:54:15;;;;;;;3.07;2.83;;;14.50;1.00;;;;;;5031547;28;20475;-79
2023/07/26 03:56:43;;;;;;;3.97;3.17;;;14.60;1.00;;;;;;5027833;28;20454;-78
2023/07/26 03:59:10;;;;;;;3.10;2.07;;;14.60;1.00;;;;;;5032699;28;20898;-78
2023/07/26 04:01:38;;;;;;;7.73;3.00;;;14.60;1.00;;;;;;5028713;28;20848;-78
2023/07/26 04:04:05;;;;;;;5.87;2.90;;;14.60;1.00;;;;;;5001322;28;20472;-79
2023/07/26 04:06:32;;;;;;;6.50;3.20;;;14.70;1.00;;;;;;5029809;28;20484;-77
2023/07/26 04:08:59;;;;;;;8.17;3.27;;;14.60;1.00;;;;;;5034797;28;20488;-78
2023/07/26 04:11:28;;;;;;;5.60;3.00;;;14.70;1.00;;;;;;5032825;28;21112;-78
2023/07/26 04:13:56;;;;;;;6.00;2.70;;;14.70;1.00;;;;;;5035729;28;20480;-78
2023/07/26 04:16:25;;;;;;;8.30;3.50;;;14.70;1.00;;;;;;5036194;28;20465;-78
2023/07/26 04:18:52;;;;;;;6.47;3.20;;;14.70;1.00;;;;;;5037677;28;20892;-79
2023/07/26 04:21:19;;;;;;;4.87;2.87;;;14.80;1.00;;;;;;5034638;28;20516;-78
2023/07/26 04:23:47;;;;;;;5.20;2.90;;;14.80;1.00;;;;;;5037855;28;20475;-78
2023/07/26 04:26:16;;;;;;;5.77;3.00;;;14.90;1.00;;;;;;5035216;28;20480;-78
2023/07/26 04:28:43;;;;;;;5.17;3.50;;;15.00;1.00;;;;;;5033630;28;20517;-78
2023/07/26 04:31:11;;;;;;;5.30;2.47;;;15.00;1.00;;;;;;5034974;28;20515;-78
2023/07/26 04:33:38;;;;;;;5.33;3.37;;;15.10;1.00;;;;;;5032506;28;20459;-77
2023/07/26 04:36:06;;;;;;;8.43;3.20;;;15.20;1.00;;;;;;5032603;28;20534;-77
2023/07/26 04:38:33;;;;;;;10.57;4.90;;;15.30;1.00;;;;;;5034043;28;21012;-78
2023/07/26 04:41:00;;;;;;;8.60;4.10;;;15.40;1.00;;;;;;5034950;28;20456;-78
2023/07/26 04:43:28;;;;;;;4.37;3.43;;;15.40;1.00;;;;;;5033275;28;20468;-77
2023/07/26 04:45:56;;;;;;;5.97;3.00;;;15.50;1.00;;;;;;5031434;28;20562;-78
2023/07/26 04:48:25;;;;;;;5.43;3.20;;;15.50;1.00;;;;;;5033067;28;20540;-78
2023/07/26 04:50:52;;;;;;;6.63;3.20;;;15.60;1.00;;;;;;5034032;28;20464;-78
2023/07/26 04:53:28;;;;;;;3.63;2.60;;;15.50;1.00;;;;;;5034811;28;20940;-78
2023/07/26 04:55:56;;;;;;;5.23;2.93;;;15.60;1.00;;;;;;5029190;28;20472;-78
2023/07/26 04:58:23;;;;;;;6.10;2.87;;;15.60;1.00;;;;;;5032308;28;20538;-79
2023/07/26 05:00:51;;;;;;;7.53;3.60;;;15.60;1.00;;;;;;5032310;28;20469;-80
2023/07/26 05:03:18;;;;;;;5.10;2.43;;;15.60;1.00;;;;;;5030132;28;20572;-79
2023/07/26 05:05:51;;;;;;;4.00;2.60;;;15.60;1.00;;;;;;5032828;28;20461;-78
2023/07/26 05:08:18;;;;;;;5.70;3.70;;;15.70;1.00;;;;;;5032638;28;20527;-77
2023/07/26 05:10:51;;;;;;;5.80;2.97;;;15.80;1.00;;;;;;5034558;28;20461;-79
2023/07/26 05:13:21;;;;;;;4.60;3.53;;;15.80;1.00;;;;;;5030615;28;20428;-78
2023/07/26 05:15:48;;;;;;;3.97;2.43;;;15.90;1.00;;;;;;5034130;28;20475;-78
2023/07/26 05:18:15;;;;;;;6.80;4.30;;;15.90;1.00;;;;;;5031641;28;20489;-77
2023/07/26 05:20:43;;;;;;;3.93;3.03;;;15.90;1.00;;;;;;5031589;28;20438;-76
2023/07/26 05:23:11;;;;;;;6.80;2.90;;;15.90;1.00;;;;;;5034684;28;20453;-77
2023/07/26 05:25:39;;;;;;;8.00;2.67;;;15.90;1.00;;;;;;5032415;28;20511;-76
2023/07/26 05:28:07;;;;;;;3.70;2.60;;;15.80;1.00;;;;;;5031018;28;20580;-77
2023/07/26 05:30:38;;;;;;;3.80;2.77;;;15.80;1.00;;;;;;5033673;28;20455;-78
2023/07/26 05:33:06;;;;;;;7.03;3.40;;;15.80;1.00;;;;;;5030936;28;20483;-78
2023/07/26 05:35:35;;;;;;;3.97;2.87;;;15.90;1.00;;;;;;5032013;28;20465;-78
2023/07/26 05:38:03;;;;;;;5.37;2.90;;;15.80;1.00;;;;;;5033859;28;20465;-78
2023/07/26 05:40:33;;;;;;;7.30;3.30;;;15.70;1.00;;;;;;5033110;28;20456;-78
2023/07/26 05:43:00;;;;;;;6.83;3.50;;;15.70;1.00;;;;;;5014069;28;21074;-78
2023/07/26 05:45:27;;;;;;;5.97;2.90;;;15.80;1.00;;;;;;5033345;28;20531;-79
2023/07/26 05:47:54;;;;;;;7.77;2.97;;;15.90;1.00;;;;;;5029835;28;20483;-78
2023/07/26 05:50:21;;;;;;;3.33;2.60;;;15.90;1.00;;;;;;5015684;28;20469;-78
2023/07/26 05:52:48;;;;;;;6.73;3.10;;;16.00;1.00;;;;;;5031588;28;20430;-77
2023/07/26 05:55:16;;;;;;;6.93;2.70;;;16.00;1.00;;;;;;5034049;28;20499;-76
2023/07/26 05:57:45;;;;;;;3.07;2.50;;;16.10;1.00;;;;;;5031959;28;20444;-78
2023/07/26 06:00:14;;;;;;;4.40;3.00;;;16.10;1.00;;;;;;5030816;28;21457;-76
2023/07/26 06:02:46;;;;;;;4.63;3.70;;;16.10;1.00;;;;;;5029963;28;20471;-78
2023/07/26 06:05:13;;;;;;;4.10;2.83;;;16.10;1.00;;;;;;5030320;28;20473;-79
2023/07/26 06:07:40;;;;;;;2.83;2.63;;;16.20;1.00;;;;;;5030647;28;21334;-80
2023/07/26 06:10:09;;;;;;;12.43;2.97;;;16.20;1.00;;;;;;5033412;28;20457;-79
2023/07/26 06:12:37;;;;;;;5.80;3.37;;;16.30;1.00;;;;;;5027826;28;21144;-78
2023/07/26 06:15:08;;;;;;;5.43;2.87;;;16.30;1.00;;;;;;5013919;28;20540;-77
2023/07/26 06:17:36;;;;;;;5.00;2.90;;;16.40;1.00;;;;;;5031183;28;20501;-78
2023/07/26 06:20:08;;;;;;;6.67;3.30;;;16.30;1.00;;;;;;5030824;28;20483;-78
2023/07/26 06:22:35;;;;;;;7.50;2.73;;;16.30;1.00;;;;;;5031590;28;20551;-80
2023/07/26 06:25:02;;;;;;;2.80;2.13;;;16.30;1.00;;;;;;5031431;28;20441;-78
2023/07/26 06:27:40;;;;;;;6.10;4.20;;;16.20;1.00;;;;;;5032652;28;20476;-80
2023/07/26 06:30:23;;;;;;;4.93;2.83;;;16.30;1.00;;;;;;5031346;28;21236;-79
2023/07/26 06:32:51;;;;;;;4.93;2.60;;;16.30;1.00;;;;;;5030499;28;20461;-78
2023/07/26 06:35:18;;;;;;;6.93;2.80;;;16.40;1.00;;;;;;5031263;28;20464;-77
2023/07/26 06:37:45;;;;;;;6.87;2.87;;;16.50;1.00;;;;;;5030584;28;20484;-78
2023/07/26 06:40:13;;;;;;;4.30;2.73;;;16.60;1.00;;;;;;5030232;28;20540;-77
2023/07/26 06:42:41;;;;;;;7.40;3.23;;;16.70;1.00;;;;;;5029149;28;20540;-77
2023/07/26 06:45:09;;;;;;;7.67;3.23;;;16.80;1.00;;;;;;5029245;28;20543;-77
2023/07/26 06:47:37;;;;;;;7.73;3.50;;;16.90;1.00;;;;;;5028516;28;21173;-75
2023/07/26 06:50:11;;;;;;;5.03;2.70;;;17.00;1.00;;;;;;5031215;28;20483;-79
2023/07/26 06:52:38;;;;;;;4.90;2.60;;;17.10;1.00;;;;;;5029317;28;20484;-77
2023/07/26 06:55:06;;;;;;;7.77;3.30;;;17.10;1.00;;;;;;5030546;28;20870;-79
2023/07/26 06:57:36;;;;;;;3.77;2.60;;;17.20;1.00;;;;;;5030789;28;20837;-79
2023/07/26 07:00:06;;;;;;;4.17;2.70;;;17.30;1.00;;;;;;5030670;28;20442;-79
2023/07/26 07:02:33;;;;;;;4.40;2.70;;;17.40;1.00;;;;;;5030751;28;20457;-79
2023/07/26 07:05:02;;;;;;;8.53;2.37;;;17.50;1.00;;;;;;5028786;28;20540;-78
2023/07/26 07:07:29;;;;;;;3.40;2.10;;;17.60;1.00;;;;;;5030577;28;20924;-79
2023/07/26 07:09:56;;;;;;;4.27;2.20;;;17.80;1.00;;;;;;5031854;28;20506;-78
2023/07/26 07:12:26;;;;;;;6.63;2.20;;;18.00;1.00;;;;;;5029164;28;20582;-79
2023/07/26 07:14:53;;;;;;;3.50;2.30;;;18.30;1.00;;;;;;5028810;28;20457;-79
2023/07/26 07:17:20;;;;;;;3.60;2.10;;;18.40;1.00;;;;;;5028381;28;20549;-78
2023/07/26 07:19:47;;;;;;;2.23;1.43;;;18.60;1.00;;;;;;5030188;28;20466;-78
2023/07/26 07:22:16;;;;;;;2.53;1.83;;;18.70;1.00;;;;;;5027010;28;20950;-76
2023/07/26 07:24:43;;;;;;;4.10;2.07;;;18.70;1.00;;;;;;5029862;28;20463;-76
2023/07/26 07:27:10;;;;;;;2.13;1.83;;;18.80;1.00;;;;;;5028070;28;20549;-76
2023/07/26 07:29:37;;;;;;;4.33;1.90;;;18.90;1.00;;;;;;5029452;28;20947;-77
2023/07/26 07:32:05;;;;;;;2.60;1.60;;;19.00;1.00;;;;;;5031306;28;20834;-76
2023/07/26 07:34:32;;;;;;;1.50;1.30;;;19.10;1.00;;;;;;5031486;28;20456;-76
2023/07/26 07:36:59;;;;;;;3.93;1.87;;;19.10;1.00;;;;;;5029896;28;20455;-76
2023/07/26 07:39:27;;;;;;;3.47;1.43;;;19.10;1.00;;;;;;5036055;28;20452;-76
2023/07/26 07:41:54;;;;;;;2.60;2.00;;;19.10;1.00;;;;;;5034425;28;20457;-77
2023/07/26 07:44:21;;;;;;;1.90;1.50;;;19.10;1.00;;;;;;5034332;28;20554;-77
2023/07/26 07:46:48;;;;;;;2.43;1.80;;;19.20;1.00;;;;;;5032421;28;20620;-76
2023/07/26 07:49:15;;;;;;;3.57;2.70;;;19.40;1.00;;;;;;5035303;28;20471;-76
2023/07/26 07:51:42;;;;;;;4.17;2.00;;;19.60;1.00;;;;;;5030871;28;20549;-76
2023/07/26 07:54:09;;;;;;;3.07;1.93;;;19.70;1.00;;;;;;5031455;28;20459;-77
2023/07/26 07:56:38;;;;;;;3.73;2.60;;;19.80;1.00;;;;;;5033587;28;20579;-76
2023/07/26 07:59:05;;;;;;;2.20;1.70;;;19.80;1.00;;;;;;5031369;28;20467;-76
2023/07/26 08:01:32;;;;;;;2.40;1.90;;;19.80;1.00;;;;;;5032555;28;20467;-77
2023/07/26 08:03:59;;;;;;;5.50;3.17;;;19.60;1.00;;;;;;5030753;28;20460;-75
2023/07/26 08:06:26;;;;;;;3.30;1.70;;;19.60;1.00;;;;;;5035846;28;20821;-76
2023/07/26 08:08:54;;;;;;;2.63;1.90;;;19.40;1.00;;;;;;5031804;28;20435;-78
2023/07/26 08:11:21;;;;;;;4.33;1.80;;;19.50;1.00;;;;;;5034650;28;20485;-77
2023/07/26 08:13:50;;;;;;;2.33;1.80;;;19.60;1.00;;;;;;5030690;28;20463;-76
2023/07/26 08:16:17;;;;;;;4.10;1.37;;;19.80;1.00;;;;;;5033093;28;20506;-79
2023/07/26 08:18:44;;;;;;;3.93;1.80;;;19.90;1.00;;;;;;5031582;28;20467;-75
2023/07/26 08:21:13;;;;;;;3.53;1.83;;;19.90;1.00;;;;;;5032555;28;20555;-75
2023/07/26 08:23:40;;;;;;;3.83;2.20;;;19.90;1.00;;;;;;5030457;28;20461;-76
2023/07/26 08:26:09;;;;;;;4.70;2.00;;;19.90;1.00;;;;;;5015565;28;20472;-77
2023/07/26 08:28:36;;;;;;;2.63;1.90;;;19.90;1.00;;;;;;5031913;28;20468;-77
2023/07/26 08:31:04;;;;;;;3.27;1.80;;;19.80;1.00;;;;;;5034322;28;20455;-77
2023/07/26 08:33:31;;;;;;;5.83;1.80;;;19.90;1.00;;;;;;5032547;28;21090;-77
2023/07/26 08:35:58;;;;;;;2.67;2.20;;;19.90;1.00;;;;;;5032359;28;20552;-77
2023/07/26 08:38:25;;;;;;;4.13;2.87;;;20.00;1.00;;;;;;5031971;28;20511;-77
2023/07/26 08:40:53;;;;;;;4.27;2.13;;;20.20;1.00;;;;;;5032938;28;20990;-78
2023/07/26 08:43:21;;;;;;;2.40;2.20;;;20.30;1.00;;;;;;5031680;28;20560;-77
2023/07/26 08:45:50;;;;;;;3.87;2.07;;;20.20;1.00;;;;;;5031923;28;20492;-77
2023/07/26 08:48:19;;;;;;;2.40;1.80;;;20.40;1.00;;;;;;5032709;28;20994;-77
2023/07/26 08:50:46;;;;;;;2.43;2.07;;;20.50;1.00;;;;;;5032511;28;20472;-77
2023/07/26 08:53:14;;;;;;;2.77;1.57;;;20.60;1.00;;;;;;5032357;28;20909;-77
2023/07/26 08:55:41;;;;;;;2.77;1.83;;;20.80;1.00;;;;;;5030154;28;20579;-76
2023/07/26 08:58:08;;;;;;;6.73;6.03;;;20.90;1.00;;;;;;5031599;28;20461;-77
2023/07/26 09:00:36;;;;;;;3.77;2.67;;;21.20;1.00;;;;;;5032875;28;20937;-77
2023/07/26 09:03:04;;;;;;;2.70;1.73;;;21.50;1.00;;;;;;5030778;28;20984;-77
2023/07/26 09:05:33;;;;;;;2.37;1.60;;;21.60;1.00;;;;;;5033132;28;20530;-77
2023/07/26 09:08:00;;;;;;;2.80;2.03;;;21.60;1.00;;;;;;5030987;28;20551;-78
2023/07/26 09:10:30;;;;;;;4.47;2.50;;;21.50;1.00;;;;;;5031888;28;20459;-77
2023/07/26 09:13:08;;;;;;;3.77;2.50;;;21.40;1.00;;;;;;5030699;28;20442;-77
2023/07/26 09:15:37;;;;;;;3.20;2.13;;;21.30;1.00;;;;;;5032364;28;20974;-77
2023/07/26 09:18:04;;;;;;;3.30;2.00;;;21.10;1.00;;;;;;5031315;28;20469;-77
2023/07/26 09:20:34;;;;;;;3.23;1.97;;;21.10;1.00;;;;;;5033399;28;20463;-78
2023/07/26 09:23:05;;;;;;;2.83;1.80;;;21.30;1.00;;;;;;5030427;28;20489;-77
2023/07/26 09:25:35;;;;;;;4.80;2.17;;;21.50;1.00;;;;;;5012554;28;20466;-77
2023/07/26 09:28:02;;;;;;;2.90;1.60;;;21.70;1.00;;;;;;5029409;28;20448;-77
2023/07/26 09:30:30;;;;;;;3.97;2.50;;;21.80;1.00;;;;;;5032931;28;20510;-77
2023/07/26 09:32:57;;;;;;;5.37;2.20;;;22.00;1.00;;;;;;5030097;28;20440;-77
2023/07/26 09:35:24;;;;;;;2.00;1.80;;;21.90;1.00;;;;;;5031976;28;20553;-77
2023/07/26 09:37:54;;;;;;;4.60;4.00;;;21.90;1.00;;;;;;5027728;28;20500;-77
2023/07/26 09:40:32;;;;;;;4.23;2.10;;;21.70;1.00;;;;;;5032875;28;21273;-77
2023/07/26 09:42:59;;;;;;;1.70;1.40;;;22.60;1.00;;;;;;5030610;28;20457;-77
2023/07/26 09:45:26;;;;;;;3.43;1.90;;;24.40;1.00;;;;;;5030888;28;20577;-78
2023/07/26 09:47:53;;;;;;;3.23;1.97;;;25.20;1.00;;;;;;5031215;28;20514;-77
2023/07/26 09:50:27;;;;;;;1.90;1.30;;;25.60;1.00;;;;;;5033166;28;20548;-77
2023/07/26 09:52:57;;;;;;;2.40;1.90;;;25.30;1.00;;;;;;5031527;28;20550;-77
2023/07/26 09:55:25;;;;;;;1.90;1.70;;;24.00;1.00;;;;;;5031479;28;20521;-77
2023/07/26 09:57:53;;;;;;;3.57;1.80;;;23.20;1.00;;;;;;5034031;28;20466;-77
2023/07/26 10:00:23;;;;;;;1.80;1.57;;;22.60;1.00;;;;;;5028268;28;20961;-77
2023/07/26 10:02:55;;;;;;;2.50;1.97;;;22.70;1.00;;;;;;5029138;28;20458;-78
2023/07/26 10:05:23;;;;;;;2.30;1.70;;;24.00;1.00;;;;;;5032916;28;20441;-78
2023/07/26 10:07:51;;;;;;;1.90;1.40;;;25.80;1.00;;;;;;5030675;28;20462;-78
2023/07/26 10:10:21;;;;;;;4.23;1.70;;;26.50;1.00;;;;;;5030670;28;20879;-78
2023/07/26 10:12:52;;;;;;;3.10;1.27;;;27.10;1.00;;;;;;5028277;28;20453;-78
2023/07/26 10:15:21;;;;;;;2.47;1.63;;;26.90;1.00;;;;;;5031014;28;20555;-77
2023/07/26 10:17:51;;;;;;;2.07;1.63;;;27.10;1.00;;;;;;5031787;28;20455;-77
2023/07/26 10:20:18;;;;;;;2.50;2.10;;;27.00;1.00;;;;;;5031021;28;20454;-76
2023/07/26 10:22:47;;;;;;;3.03;1.30;;;26.70;1.00;;;;;;5030126;28;20460;-77
2023/07/26 10:25:14;;;;;;;2.43;2.23;;;27.10;1.00;;;;;;5031740;28;20899;-77
2023/07/26 10:27:44;;;;;;;1.80;1.70;;;27.70;1.00;;;;;;5030791;28;20511;-77
2023/07/26 10:30:12;;;;;;;1.87;1.63;;;27.50;1.00;;;;;;5026877;28;20478;-77
2023/07/26 10:32:48;;;;;;;3.13;1.70;;;28.10;1.00;;;;;;5030485;28;20476;-77
2023/07/26 10:35:27;;;;;;;10.30;2.60;;;28.70;1.00;;;;;;5028158;28;20458;-76
2023/07/26 10:37:57;;;;;;;2.00;1.70;;;29.30;1.00;;;;;;5029093;28;20476;-77
2023/07/26 10:40:34;;;;;;;2.83;1.90;;;29.60;1.00;;;;;;5031891;28;20469;-77
2023/07/26 10:43:39;;;;;;;2.90;2.30;;;29.80;1.00;;;;;;5027186;28;20495;-77
2023/07/26 10:46:10;;;;;;;2.73;2.03;;;30.30;1.00;;;;;;5029191;28;20844;-77
2023/07/26 10:48:39;;;;;;;2.33;1.50;;;30.60;1.00;;;;;;5031218;28;20911;-77
2023/07/26 10:51:25;;;;;;;2.13;1.53;;;30.00;1.00;;;;;;5030963;28;21301;-77
2023/07/26 10:53:53;;;;;;;4.13;1.60;;;29.90;1.00;;;;;;5029147;28;20888;-77
2023/07/26 10:56:24;;;;;;;3.20;1.33;;;30.00;1.00;;;;;;5032777;28;20572;-77
2023/07/26 10:58:54;;;;;;;4.20;3.67;;;29.80;1.00;;;;;;5028597;28;20987;-78
2023/07/26 11:01:33;;;;;;;4.30;1.50;;;28.90;1.00;;;;;;5030178;28;20468;-77
2023/07/26 11:04:01;;;;;;;2.83;1.57;;;29.50;1.00;;;;;;5028163;28;20610;-75
2023/07/26 11:06:50;;;;;;;2.70;1.70;;;30.90;1.00;;;;;;5030957;28;20991;-77
2023/07/26 11:09:24;;;;;;;3.93;2.63;;;30.80;1.00;;;;;;5032049;28;20441;-77
2023/07/26 11:11:58;;;;;;;4.00;2.33;;;29.70;1.00;;;;;;5028109;28;20868;-77
2023/07/26 11:14:28;;;;;;;1.80;1.67;;;28.50;1.00;;;;;;5030865;28;20527;-77
2023/07/26 11:16:56;;;;;;;2.47;2.03;;;28.80;1.00;;;;;;5028856;28;20519;-77
2023/07/26 11:19:23;;;;;;;3.03;1.37;;;29.70;1.00;;;;;;5030390;28;20511;-77
2023/07/26 11:21:50;;;;;;;2.80;2.03;;;30.20;1.00;;;;;;5031248;28;20457;-77
2023/07/26 11:24:17;;;;;;;3.97;2.30;;;31.20;1.00;;;;;;5031922;28;20469;-77
2023/07/26 11:26:46;;;;;;;1.50;1.40;;;32.00;1.00;;;;;;5029872;28;20493;-77
2023/07/26 11:29:14;;;;;;;1.90;1.43;;;32.50;1.00;;;;;;5031218;28;20473;-77
2023/07/26 11:31:42;;;;;;;4.83;1.40;;;32.60;1.00;;;;;;5032019;28;20457;-77
2023/07/26 11:34:19;;;;;;;3.90;2.20;;;30.80;1.00;;;;;;5030681;28;20464;-77
2023/07/26 11:36:46;;;;;;;3.90;1.80;;;29.40;1.00;;;;;;5030908;28;20507;-76
2023/07/26 11:39:21;;;;;;;3.13;2.40;;;28.10;1.00;;;;;;5031401;28;20452;-77
2023/07/26 11:41:49;;;;;;;1.90;1.50;;;27.00;1.00;;;;;;5031389;28;20471;-77
2023/07/26 11:44:17;;;;;;;2.43;2.00;;;26.10;1.00;;;;;;5029557;28;20487;-77
2023/07/26 11:46:45;;;;;;;2.70;1.97;;;25.30;1.00;;;;;;5030179;28;20491;-75
2023/07/26 11:49:19;;;;;;;3.57;2.13;;;23.70;1.00;;;;;;5029124;28;20896;-76
2023/07/26 11:51:46;;;;;;;3.90;2.33;;;22.40;1.00;;;;;;5009435;28;20479;-76
2023/07/26 11:54:13;;;;;;;6.90;1.83;;;21.20;1.00;;;;;;5028972;28;20486;-76
2023/07/26 11:56:41;;;;;;;4.00;1.77;;;20.40;1.00;;;;;;5028383;28;20524;-75
2023/07/26 11:59:08;;;;;;;2.80;2.27;;;19.90;1.00;;;;;;5030121;28;20437;-76
2023/07/26 12:01:37;;;;;;;3.87;2.40;;;19.70;1.00;;;;;;5029913;28;20466;-76
2023/07/26 12:04:13;;;;;;;5.73;3.40;;;19.80;1.00;;;;;;5028462;28;20469;-75
2023/07/26 12:06:41;;;;;;;3.40;3.00;;;20.10;1.00;;;;;;5030168;28;20540;-76
2023/07/26 12:09:11;;;;;;;5.10;2.10;;;22.20;1.00;;;;;;5027304;28;20459;-76
2023/07/26 12:11:42;;;;;;;3.60;2.23;;;25.10;1.00;;;;;;5028220;28;20849;-75
2023/07/26 12:14:15;;;;;;;4.20;2.50;;;27.30;1.00;;;;;;5029142;28;20462;-75
2023/07/26 12:16:49;;;;;;;2.97;2.30;;;29.00;1.00;;;;;;5027371;28;20894;-75
2023/07/26 12:19:20;;;;;;;3.10;2.23;;;30.50;1.00;;;;;;5028854;28;20898;-75
2023/07/26 12:21:48;;;;;;;2.40;1.80;;;30.00;1.00;;;;;;5027748;28;20591;-76
2023/07/26 12:24:15;;;;;;;2.37;1.87;;;28.20;1.00;;;;;;5031374;28;21019;-75
2023/07/26 12:26:45;;;;;;;3.10;2.10;;;26.70;1.00;;;;;;5026839;28;20471;-75
2023/07/26 12:29:12;;;;;;;1.73;1.63;;;25.60;1.00;;;;;;5032157;28;20460;-75
2023/07/26 12:31:39;;;;;;;2.57;2.03;;;24.90;1.00;;;;;;5032646;28;20489;-75
2023/07/26 12:34:08;;;;;;;2.80;2.60;;;24.20;1.00;;;;;;5033407;28;20450;-76
2023/07/26 12:36:50;;;;;;;3.63;1.93;;;23.80;1.00;;;;;;5033289;28;20476;-76
2023/07/26 12:39:18;;;;;;;4.43;2.03;;;25.00;1.00;;;;;;5031451;28;20461;-76
2023/07/26 12:41:46;;;;;;;3.23;2.20;;;27.50;1.00;;;;;;5031677;28;20467;-76
2023/07/26 12:44:13;;;;;;;2.27;1.70;;;29.20;1.00;;;;;;5030797;28;20431;-76
2023/07/26 12:46:41;;;;;;;4.30;1.83;;;28.90;1.00;;;;;;5028937;28;20560;-76
2023/07/26 12:49:10;;;;;;;2.70;1.60;;;28.00;1.00;;;;;;5032432;28;20484;-76
2023/07/26 12:51:38;;;;;;;2.33;1.87;;;29.30;1.00;;;;;;5031402;28;20468;-77
2023/07/26 12:54:06;;;;;;;2.00;1.80;;;30.80;1.00;;;;;;5032628;28;21402;-76
2023/07/26 12:56:33;;;;;;;3.47;2.43;;;31.40;1.00;;;;;;5031389;28;20541;-74
2023/07/26 12:59:00;;;;;;;5.63;2.70;;;32.00;1.00;;;;;;5031699;28;20450;-75
2023/07/26 13:01:27;;;;;;;1.70;1.57;;;33.00;1.00;;;;;;5033417;28;20913;-75
2023/07/26 13:03:54;;;;;;;1.90;1.40;;;34.40;1.00;;;;;;5032024;28;20462;-75